sensor_id;sensor_type;location;lat;lon;timestamp;P1;durP1;ratioP1;P2;durP2;ratioP2
42668;SDS011;29384;42.028;21.388;2022-08-19T00:01:34;7.97;;;2.80;;
42668;SDS011;29384;42.028;21.388;2022-08-19T00:04:02;2.90;;;2.58;;
42668;SDS011;29384;42.028;21.388;2022-08-19T00:06:30;2.13;;;1.98;;
42668;SDS011;29384;42.028;21.388;2022-08-19T00:08:56;10.63;;;2.60;;
42668;SDS011;29384;42.028;21.388;2022-08-19T00:11:23;6.15;;;2.20;;
42668;SDS011;29384;42.028;21.388;2022-08-19T00:13:49;3.20;;;2.42;;
42668;SDS011;29384;42.028;21.388;2022-08-19T00:16:15;3.15;;;2.70;;
42668;SDS011;29384;42.028;21.388;2022-08-19T00:18:45;7.28;;;2.35;;
42668;SDS011;29384;42.028;21.388;2022-08-19T00:21:12;13.35;;;2.78;;
42668;SDS011;29384;42.028;21.388;2022-08-19T00:23:38;4.97;;;2.40;;
42668;SDS011;29384;42.028;21.388;2022-08-19T00:26:04;9.38;;;3.03;;
42668;SDS011;29384;42.028;21.388;2022-08-19T00:28:30;7.22;;;2.20;;
42668;SDS011;29384;42.028;21.388;2022-08-19T00:30:56;4.40;;;2.30;;
42668;SDS011;29384;42.028;21.388;2022-08-19T00:33:21;5.75;;;2.40;;
42668;SDS011;29384;42.028;21.388;2022-08-19T00:39:08;4.93;;;2.20;;
42668;SDS011;29384;42.028;21.388;2022-08-19T00:41:35;7.00;;;3.17;;
42668;SDS011;29384;42.028;21.388;2022-08-19T00:46:36;4.13;;;2.70;;
42668;SDS011;29384;42.028;21.388;2022-08-19T00:49:06;4.32;;;2.45;;
42668;SDS011;29384;42.028;21.388;2022-08-19T00:51:39;3.08;;;2.10;;
42668;SDS011;29384;42.028;21.388;2022-08-19T00:54:06;2.22;;;2.10;;
42668;SDS011;29384;42.028;21.388;2022-08-19T00:56:32;6.60;;;2.60;;
42668;SDS011;29384;42.028;21.388;2022-08-19T00:58:58;8.80;;;3.25;;
42668;SDS011;29384;42.028;21.388;2022-08-19T01:01:24;8.70;;;2.67;;
42668;SDS011;29384;42.028;21.388;2022-08-19T01:03:50;12.73;;;2.42;;
42668;SDS011;29384;42.028;21.388;2022-08-19T01:09:37;6.30;;;2.63;;
42668;SDS011;29384;42.028;21.388;2022-08-19T01:12:03;2.15;;;1.90;;
42668;SDS011;29384;42.028;21.388;2022-08-19T01:14:29;6.85;;;2.35;;
42668;SDS011;29384;42.028;21.388;2022-08-19T01:16:55;7.40;;;2.13;;
42668;SDS011;29384;42.028;21.388;2022-08-19T01:19:27;3.70;;;3.05;;
42668;SDS011;29384;42.028;21.388;2022-08-19T01:24:44;4.85;;;3.42;;
42668;SDS011;29384;42.028;21.388;2022-08-19T01:27:09;3.95;;;2.95;;
42668;SDS011;29384;42.028;21.388;2022-08-19T01:29:36;7.40;;;2.47;;
42668;SDS011;29384;42.028;21.388;2022-08-19T01:32:04;3.72;;;3.00;;
42668;SDS011;29384;42.028;21.388;2022-08-19T01:34:32;3.15;;;2.95;;
42668;SDS011;29384;42.028;21.388;2022-08-19T01:36:59;2.10;;;2.08;;
42668;SDS011;29384;42.028;21.388;2022-08-19T01:39:26;3.17;;;2.47;;
42668;SDS011;29384;42.028;21.388;2022-08-19T01:41:53;3.20;;;2.45;;
42668;SDS011;29384;42.028;21.388;2022-08-19T01:44:20;5.90;;;2.58;;
42668;SDS011;29384;42.028;21.388;2022-08-19T01:46:48;3.15;;;2.30;;
42668;SDS011;29384;42.028;21.388;2022-08-19T01:49:15;6.68;;;3.20;;
42668;SDS011;29384;42.028;21.388;2022-08-19T01:51:46;2.50;;;2.38;;
42668;SDS011;29384;42.028;21.388;2022-08-19T01:54:12;7.80;;;3.65;;
42668;SDS011;29384;42.028;21.388;2022-08-19T01:56:40;11.63;;;2.72;;
42668;SDS011;29384;42.028;21.388;2022-08-19T01:59:09;2.78;;;2.00;;
42668;SDS011;29384;42.028;21.388;2022-08-19T02:01:38;5.82;;;1.95;;
42668;SDS011;29384;42.028;21.388;2022-08-19T02:04:04;7.05;;;2.78;;
42668;SDS011;29384;42.028;21.388;2022-08-19T02:09:52;1.83;;;1.73;;
42668;SDS011;29384;42.028;21.388;2022-08-19T02:12:17;4.03;;;2.35;;
42668;SDS011;29384;42.028;21.388;2022-08-19T02:14:43;5.57;;;2.90;;
42668;SDS011;29384;42.028;21.388;2022-08-19T02:17:08;5.13;;;3.20;;
42668;SDS011;29384;42.028;21.388;2022-08-19T02:19:34;2.75;;;2.30;;
42668;SDS011;29384;42.028;21.388;2022-08-19T02:21:59;2.88;;;2.67;;
42668;SDS011;29384;42.028;21.388;2022-08-19T02:24:25;11.27;;;2.55;;
42668;SDS011;29384;42.028;21.388;2022-08-19T02:26:52;3.83;;;2.03;;
42668;SDS011;29384;42.028;21.388;2022-08-19T02:29:17;4.32;;;2.90;;
42668;SDS011;29384;42.028;21.388;2022-08-19T02:31:43;4.05;;;2.92;;
42668;SDS011;29384;42.028;21.388;2022-08-19T02:34:08;3.60;;;2.28;;
42668;SDS011;29384;42.028;21.388;2022-08-19T02:39:55;7.95;;;2.85;;
42668;SDS011;29384;42.028;21.388;2022-08-19T02:42:21;11.23;;;2.80;;
42668;SDS011;29384;42.028;21.388;2022-08-19T02:44:46;5.03;;;2.50;;
42668;SDS011;29384;42.028;21.388;2022-08-19T02:47:12;6.22;;;2.47;;
42668;SDS011;29384;42.028;21.388;2022-08-19T02:49:39;4.57;;;2.13;;
42668;SDS011;29384;42.028;21.388;2022-08-19T02:52:04;2.72;;;1.95;;
42668;SDS011;29384;42.028;21.388;2022-08-19T02:54:30;6.43;;;2.55;;
42668;SDS011;29384;42.028;21.388;2022-08-19T02:56:55;4.05;;;2.90;;
42668;SDS011;29384;42.028;21.388;2022-08-19T02:59:21;3.15;;;2.35;;
42668;SDS011;29384;42.028;21.388;2022-08-19T03:01:47;2.58;;;2.38;;
42668;SDS011;29384;42.028;21.388;2022-08-19T03:04:13;3.15;;;2.75;;
42668;SDS011;29384;42.028;21.388;2022-08-19T03:10:02;5.07;;;2.67;;
42668;SDS011;29384;42.028;21.388;2022-08-19T03:12:28;6.28;;;2.75;;
42668;SDS011;29384;42.028;21.388;2022-08-19T03:14:54;5.78;;;2.80;;
42668;SDS011;29384;42.028;21.388;2022-08-19T03:17:21;2.47;;;2.28;;
42668;SDS011;29384;42.028;21.388;2022-08-19T03:19:46;2.50;;;2.33;;
42668;SDS011;29384;42.028;21.388;2022-08-19T03:25:40;11.57;;;3.10;;
42668;SDS011;29384;42.028;21.388;2022-08-19T03:28:08;4.85;;;2.78;;
42668;SDS011;29384;42.028;21.388;2022-08-19T03:30:35;5.20;;;2.47;;
42668;SDS011;29384;42.028;21.388;2022-08-19T03:33:00;3.35;;;2.30;;
42668;SDS011;29384;42.028;21.388;2022-08-19T03:35:27;4.20;;;2.75;;
42668;SDS011;29384;42.028;21.388;2022-08-19T03:37:52;7.53;;;2.78;;
42668;SDS011;29384;42.028;21.388;2022-08-19T03:40:18;2.42;;;2.30;;
42668;SDS011;29384;42.028;21.388;2022-08-19T03:42:44;3.67;;;3.35;;
42668;SDS011;29384;42.028;21.388;2022-08-19T03:45:11;5.07;;;2.90;;
42668;SDS011;29384;42.028;21.388;2022-08-19T03:47:36;2.60;;;2.50;;
42668;SDS011;29384;42.028;21.388;2022-08-19T03:50:02;7.60;;;2.40;;
42668;SDS011;29384;42.028;21.388;2022-08-19T03:52:29;6.95;;;2.28;;
42668;SDS011;29384;42.028;21.388;2022-08-19T03:54:54;3.13;;;2.28;;
42668;SDS011;29384;42.028;21.388;2022-08-19T03:57:20;2.78;;;2.58;;
42668;SDS011;29384;42.028;21.388;2022-08-19T03:59:45;7.85;;;3.45;;
42668;SDS011;29384;42.028;21.388;2022-08-19T04:02:11;4.60;;;3.40;;
42668;SDS011;29384;42.028;21.388;2022-08-19T04:04:39;5.30;;;3.33;;
42668;SDS011;29384;42.028;21.388;2022-08-19T04:10:27;3.10;;;2.85;;
42668;SDS011;29384;42.028;21.388;2022-08-19T04:12:53;6.43;;;3.53;;
42668;SDS011;29384;42.028;21.388;2022-08-19T04:15:18;2.33;;;2.08;;
42668;SDS011;29384;42.028;21.388;2022-08-19T04:17:45;6.63;;;3.13;;
42668;SDS011;29384;42.028;21.388;2022-08-19T04:20:11;10.43;;;3.25;;
42668;SDS011;29384;42.028;21.388;2022-08-19T04:25:58;3.17;;;1.90;;
42668;SDS011;29384;42.028;21.388;2022-08-19T04:28:24;21.08;;;3.78;;
42668;SDS011;29384;42.028;21.388;2022-08-19T04:30:51;10.25;;;2.45;;
42668;SDS011;29384;42.028;21.388;2022-08-19T04:33:19;11.95;;;2.58;;
42668;SDS011;29384;42.028;21.388;2022-08-19T04:35:48;8.25;;;2.45;;
42668;SDS011;29384;42.028;21.388;2022-08-19T04:38:15;12.27;;;2.72;;
42668;SDS011;29384;42.028;21.388;2022-08-19T04:40:44;9.27;;;3.20;;
42668;SDS011;29384;42.028;21.388;2022-08-19T04:43:34;15.45;;;3.58;;
42668;SDS011;29384;42.028;21.388;2022-08-19T04:46:07;11.10;;;4.22;;
42668;SDS011;29384;42.028;21.388;2022-08-19T04:48:35;18.85;;;5.18;;
42668;SDS011;29384;42.028;21.388;2022-08-19T04:51:05;12.13;;;4.22;;
42668;SDS011;29384;42.028;21.388;2022-08-19T04:53:32;11.27;;;4.10;;
42668;SDS011;29384;42.028;21.388;2022-08-19T04:56:02;5.65;;;4.38;;
42668;SDS011;29384;42.028;21.388;2022-08-19T04:58:32;25.42;;;5.72;;
42668;SDS011;29384;42.028;21.388;2022-08-19T05:00:58;5.97;;;4.38;;
42668;SDS011;29384;42.028;21.388;2022-08-19T05:03:25;10.85;;;3.53;;
42668;SDS011;29384;42.028;21.388;2022-08-19T05:05:51;13.55;;;4.55;;
42668;SDS011;29384;42.028;21.388;2022-08-19T05:08:18;7.85;;;3.88;;
42668;SDS011;29384;42.028;21.388;2022-08-19T05:10:49;11.77;;;4.10;;
42668;SDS011;29384;42.028;21.388;2022-08-19T05:13:17;4.93;;;3.50;;
42668;SDS011;29384;42.028;21.388;2022-08-19T05:15:44;4.63;;;4.00;;
42668;SDS011;29384;42.028;21.388;2022-08-19T05:18:19;8.32;;;4.90;;
42668;SDS011;29384;42.028;21.388;2022-08-19T05:23:53;11.73;;;4.60;;
42668;SDS011;29384;42.028;21.388;2022-08-19T05:26:18;7.05;;;4.60;;
42668;SDS011;29384;42.028;21.388;2022-08-19T05:28:44;5.32;;;3.63;;
42668;SDS011;29384;42.028;21.388;2022-08-19T05:31:09;9.00;;;4.60;;
42668;SDS011;29384;42.028;21.388;2022-08-19T05:33:35;12.63;;;4.82;;
42668;SDS011;29384;42.028;21.388;2022-08-19T05:36:01;13.23;;;5.45;;
42668;SDS011;29384;42.028;21.388;2022-08-19T05:38:28;6.47;;;4.22;;
42668;SDS011;29384;42.028;21.388;2022-08-19T05:40:55;17.88;;;5.15;;
42668;SDS011;29384;42.028;21.388;2022-08-19T05:43:21;5.38;;;3.38;;
42668;SDS011;29384;42.028;21.388;2022-08-19T05:45:46;14.00;;;4.68;;
42668;SDS011;29384;42.028;21.388;2022-08-19T05:48:12;11.02;;;4.60;;
42668;SDS011;29384;42.028;21.388;2022-08-19T05:50:39;6.00;;;5.05;;
42668;SDS011;29384;42.028;21.388;2022-08-19T05:56:27;10.88;;;5.22;;
42668;SDS011;29384;42.028;21.388;2022-08-19T05:58:53;9.57;;;4.45;;
42668;SDS011;29384;42.028;21.388;2022-08-19T06:01:19;5.13;;;3.80;;
42668;SDS011;29384;42.028;21.388;2022-08-19T06:03:44;6.28;;;4.13;;
42668;SDS011;29384;42.028;21.388;2022-08-19T06:06:11;6.75;;;5.07;;
42668;SDS011;29384;42.028;21.388;2022-08-19T06:08:38;6.95;;;4.95;;
42668;SDS011;29384;42.028;21.388;2022-08-19T06:11:14;7.32;;;4.88;;
42668;SDS011;29384;42.028;21.388;2022-08-19T06:13:41;7.38;;;4.85;;
42668;SDS011;29384;42.028;21.388;2022-08-19T06:16:06;12.70;;;4.65;;
42668;SDS011;29384;42.028;21.388;2022-08-19T06:18:32;17.83;;;5.60;;
42668;SDS011;29384;42.028;21.388;2022-08-19T06:20:58;16.10;;;5.25;;
42668;SDS011;29384;42.028;21.388;2022-08-19T06:26:46;18.33;;;5.03;;
42668;SDS011;29384;42.028;21.388;2022-08-19T06:29:15;14.40;;;5.75;;
42668;SDS011;29384;42.028;21.388;2022-08-19T06:31:42;13.02;;;6.47;;
42668;SDS011;29384;42.028;21.388;2022-08-19T06:34:14;10.10;;;6.60;;
42668;SDS011;29384;42.028;21.388;2022-08-19T06:36:41;20.50;;;7.40;;
42668;SDS011;29384;42.028;21.388;2022-08-19T06:39:10;16.83;;;5.75;;
42668;SDS011;29384;42.028;21.388;2022-08-19T06:41:40;10.93;;;4.72;;
42668;SDS011;29384;42.028;21.388;2022-08-19T06:44:07;8.52;;;4.68;;
42668;SDS011;29384;42.028;21.388;2022-08-19T06:46:33;15.85;;;5.25;;
42668;SDS011;29384;42.028;21.388;2022-08-19T06:49:00;4.50;;;4.07;;
42668;SDS011;29384;42.028;21.388;2022-08-19T06:51:25;8.88;;;4.85;;
42668;SDS011;29384;42.028;21.388;2022-08-19T06:53:52;12.38;;;5.20;;
42668;SDS011;29384;42.028;21.388;2022-08-19T06:56:21;14.82;;;5.18;;
42668;SDS011;29384;42.028;21.388;2022-08-19T06:59:09;5.53;;;4.13;;
42668;SDS011;29384;42.028;21.388;2022-08-19T07:01:38;4.28;;;3.72;;
42668;SDS011;29384;42.028;21.388;2022-08-19T07:04:06;3.92;;;3.58;;
42668;SDS011;29384;42.028;21.388;2022-08-19T07:06:33;7.00;;;4.00;;
42668;SDS011;29384;42.028;21.388;2022-08-19T07:09:00;7.63;;;4.90;;
42668;SDS011;29384;42.028;21.388;2022-08-19T07:11:26;6.78;;;4.25;;
42668;SDS011;29384;42.028;21.388;2022-08-19T07:13:52;6.35;;;3.85;;
42668;SDS011;29384;42.028;21.388;2022-08-19T07:16:18;7.53;;;2.97;;
42668;SDS011;29384;42.028;21.388;2022-08-19T07:18:45;7.85;;;3.33;;
42668;SDS011;29384;42.028;21.388;2022-08-19T07:21:15;13.65;;;3.33;;
42668;SDS011;29384;42.028;21.388;2022-08-19T07:27:08;10.63;;;4.68;;
42668;SDS011;29384;42.028;21.388;2022-08-19T07:29:35;20.88;;;3.78;;
42668;SDS011;29384;42.028;21.388;2022-08-19T07:32:01;5.07;;;3.33;;
42668;SDS011;29384;42.028;21.388;2022-08-19T07:34:28;7.00;;;3.22;;
42668;SDS011;29384;42.028;21.388;2022-08-19T07:36:55;4.63;;;2.40;;
42668;SDS011;29384;42.028;21.388;2022-08-19T07:39:25;9.48;;;3.85;;
42668;SDS011;29384;42.028;21.388;2022-08-19T07:41:53;5.70;;;3.13;;
42668;SDS011;29384;42.028;21.388;2022-08-19T07:44:20;4.32;;;2.80;;
42668;SDS011;29384;42.028;21.388;2022-08-19T07:46:47;11.82;;;4.35;;
42668;SDS011;29384;42.028;21.388;2022-08-19T07:49:15;10.82;;;2.70;;
42668;SDS011;29384;42.028;21.388;2022-08-19T07:51:46;5.47;;;2.67;;
42668;SDS011;29384;42.028;21.388;2022-08-19T07:54:13;12.68;;;4.32;;
42668;SDS011;29384;42.028;21.388;2022-08-19T07:56:39;5.43;;;3.10;;
42668;SDS011;29384;42.028;21.388;2022-08-19T07:59:04;8.98;;;3.78;;
42668;SDS011;29384;42.028;21.388;2022-08-19T08:01:30;2.92;;;2.72;;
42668;SDS011;29384;42.028;21.388;2022-08-19T08:03:56;4.15;;;2.78;;
42668;SDS011;29384;42.028;21.388;2022-08-19T08:06:41;5.13;;;3.10;;
42668;SDS011;29384;42.028;21.388;2022-08-19T08:12:47;19.13;;;2.88;;
42668;SDS011;29384;42.028;21.388;2022-08-19T08:15:15;7.50;;;3.30;;
42668;SDS011;29384;42.028;21.388;2022-08-19T08:17:42;3.83;;;2.72;;
42668;SDS011;29384;42.028;21.388;2022-08-19T08:20:08;3.75;;;2.60;;
42668;SDS011;29384;42.028;21.388;2022-08-19T08:22:34;5.53;;;3.88;;
42668;SDS011;29384;42.028;21.388;2022-08-19T08:25:20;10.98;;;4.00;;
42668;SDS011;29384;42.028;21.388;2022-08-19T08:27:47;2.75;;;2.55;;
42668;SDS011;29384;42.028;21.388;2022-08-19T08:30:21;6.47;;;2.83;;
42668;SDS011;29384;42.028;21.388;2022-08-19T08:32:49;6.15;;;3.60;;
42668;SDS011;29384;42.028;21.388;2022-08-19T08:35:16;8.52;;;3.15;;
42668;SDS011;29384;42.028;21.388;2022-08-19T08:37:45;9.38;;;3.38;;
42668;SDS011;29384;42.028;21.388;2022-08-19T08:48:41;6.88;;;4.05;;
42668;SDS011;29384;42.028;21.388;2022-08-19T08:51:14;8.20;;;3.42;;
42668;SDS011;29384;42.028;21.388;2022-08-19T08:53:46;2.75;;;2.47;;
42668;SDS011;29384;42.028;21.388;2022-08-19T08:56:15;15.57;;;3.72;;
42668;SDS011;29384;42.028;21.388;2022-08-19T09:01:19;7.00;;;3.17;;
42668;SDS011;29384;42.028;21.388;2022-08-19T09:03:45;9.82;;;4.10;;
42668;SDS011;29384;42.028;21.388;2022-08-19T09:14:47;12.50;;;4.40;;
42668;SDS011;29384;42.028;21.388;2022-08-19T09:17:26;4.70;;;2.83;;
42668;SDS011;29384;42.028;21.388;2022-08-19T09:25:47;5.72;;;3.05;;
42668;SDS011;29384;42.028;21.388;2022-08-19T09:28:12;2.38;;;2.10;;
42668;SDS011;29384;42.028;21.388;2022-08-19T09:30:39;7.60;;;3.15;;
42668;SDS011;29384;42.028;21.388;2022-08-19T09:33:06;5.55;;;3.38;;
42668;SDS011;29384;42.028;21.388;2022-08-19T09:35:32;5.28;;;3.17;;
42668;SDS011;29384;42.028;21.388;2022-08-19T09:41:21;4.05;;;3.40;;
42668;SDS011;29384;42.028;21.388;2022-08-19T09:43:50;5.57;;;2.60;;
42668;SDS011;29384;42.028;21.388;2022-08-19T09:46:17;4.90;;;3.05;;
42668;SDS011;29384;42.028;21.388;2022-08-19T09:48:44;6.15;;;2.20;;
42668;SDS011;29384;42.028;21.388;2022-08-19T09:51:13;7.10;;;3.13;;
42668;SDS011;29384;42.028;21.388;2022-08-19T09:57:03;14.73;;;3.60;;
42668;SDS011;29384;42.028;21.388;2022-08-19T09:59:29;3.60;;;2.47;;
42668;SDS011;29384;42.028;21.388;2022-08-19T10:01:54;4.07;;;2.05;;
42668;SDS011;29384;42.028;21.388;2022-08-19T10:04:20;2.80;;;2.58;;
42668;SDS011;29384;42.028;21.388;2022-08-19T10:06:47;3.63;;;2.95;;
42668;SDS011;29384;42.028;21.388;2022-08-19T10:12:35;3.78;;;2.30;;
42668;SDS011;29384;42.028;21.388;2022-08-19T10:15:02;2.53;;;2.33;;
42668;SDS011;29384;42.028;21.388;2022-08-19T10:17:31;5.20;;;2.20;;
42668;SDS011;29384;42.028;21.388;2022-08-19T10:19:58;5.70;;;2.58;;
42668;SDS011;29384;42.028;21.388;2022-08-19T10:22:24;3.97;;;2.28;;
42668;SDS011;29384;42.028;21.388;2022-08-19T10:24:49;5.72;;;2.70;;
42668;SDS011;29384;42.028;21.388;2022-08-19T10:27:15;3.08;;;2.40;;
42668;SDS011;29384;42.028;21.388;2022-08-19T10:29:41;7.28;;;2.50;;
42668;SDS011;29384;42.028;21.388;2022-08-19T10:32:07;6.40;;;2.88;;
42668;SDS011;29384;42.028;21.388;2022-08-19T10:34:34;6.53;;;3.03;;
42668;SDS011;29384;42.028;21.388;2022-08-19T10:37:01;3.30;;;2.17;;
42668;SDS011;29384;42.028;21.388;2022-08-19T10:42:49;3.40;;;2.60;;
42668;SDS011;29384;42.028;21.388;2022-08-19T10:45:15;8.95;;;2.65;;
42668;SDS011;29384;42.028;21.388;2022-08-19T10:47:41;3.97;;;2.22;;
42668;SDS011;29384;42.028;21.388;2022-08-19T10:50:07;4.65;;;2.05;;
42668;SDS011;29384;42.028;21.388;2022-08-19T10:52:51;5.88;;;2.20;;
42668;SDS011;29384;42.028;21.388;2022-08-19T10:55:17;12.60;;;2.58;;
42668;SDS011;29384;42.028;21.388;2022-08-19T10:58:16;3.75;;;2.28;;
42668;SDS011;29384;42.028;21.388;2022-08-19T11:00:53;2.88;;;2.42;;
42668;SDS011;29384;42.028;21.388;2022-08-19T11:03:21;6.00;;;2.10;;
42668;SDS011;29384;42.028;21.388;2022-08-19T11:05:47;6.88;;;2.60;;
42668;SDS011;29384;42.028;21.388;2022-08-19T11:08:22;2.47;;;1.92;;
42668;SDS011;29384;42.028;21.388;2022-08-19T11:10:52;5.50;;;2.17;;
42668;SDS011;29384;42.028;21.388;2022-08-19T11:13:26;3.88;;;2.25;;
42668;SDS011;29384;42.028;21.388;2022-08-19T11:15:56;6.60;;;2.55;;
42668;SDS011;29384;42.028;21.388;2022-08-19T11:18:23;2.55;;;2.33;;
42668;SDS011;29384;42.028;21.388;2022-08-19T11:20:48;3.60;;;2.50;;
42668;SDS011;29384;42.028;21.388;2022-08-19T11:23:14;6.28;;;2.47;;
42668;SDS011;29384;42.028;21.388;2022-08-19T11:25:39;10.55;;;2.63;;
42668;SDS011;29384;42.028;21.388;2022-08-19T11:28:05;6.57;;;2.72;;
42668;SDS011;29384;42.028;21.388;2022-08-19T11:30:30;3.90;;;2.17;;
42668;SDS011;29384;42.028;21.388;2022-08-19T11:32:56;6.63;;;2.53;;
42668;SDS011;29384;42.028;21.388;2022-08-19T11:35:22;4.18;;;1.80;;
42668;SDS011;29384;42.028;21.388;2022-08-19T11:37:48;5.90;;;2.45;;
42668;SDS011;29384;42.028;21.388;2022-08-19T11:40:13;3.55;;;2.38;;
42668;SDS011;29384;42.028;21.388;2022-08-19T11:42:39;2.30;;;2.10;;
42668;SDS011;29384;42.028;21.388;2022-08-19T11:45:20;3.05;;;2.15;;
42668;SDS011;29384;42.028;21.388;2022-08-19T11:47:47;7.90;;;2.30;;
42668;SDS011;29384;42.028;21.388;2022-08-19T11:50:13;8.60;;;1.73;;
42668;SDS011;29384;42.028;21.388;2022-08-19T11:52:39;4.65;;;2.28;;
42668;SDS011;29384;42.028;21.388;2022-08-19T11:58:27;7.50;;;2.45;;
42668;SDS011;29384;42.028;21.388;2022-08-19T12:00:52;4.63;;;2.30;;
42668;SDS011;29384;42.028;21.388;2022-08-19T12:03:18;10.55;;;2.70;;
42668;SDS011;29384;42.028;21.388;2022-08-19T12:05:44;4.25;;;2.92;;
42668;SDS011;29384;42.028;21.388;2022-08-19T12:08:10;7.80;;;2.10;;
42668;SDS011;29384;42.028;21.388;2022-08-19T12:10:38;9.85;;;2.78;;
42668;SDS011;29384;42.028;21.388;2022-08-19T12:13:04;4.72;;;2.17;;
42668;SDS011;29384;42.028;21.388;2022-08-19T12:15:30;5.22;;;2.05;;
42668;SDS011;29384;42.028;21.388;2022-08-19T12:18:00;8.30;;;2.33;;
42668;SDS011;29384;42.028;21.388;2022-08-19T12:20:26;3.92;;;2.40;;
42668;SDS011;29384;42.028;21.388;2022-08-19T12:22:51;3.33;;;2.10;;
42668;SDS011;29384;42.028;21.388;2022-08-19T12:28:39;7.13;;;2.63;;
42668;SDS011;29384;42.028;21.388;2022-08-19T12:31:05;4.60;;;2.10;;
42668;SDS011;29384;42.028;21.388;2022-08-19T12:33:30;2.67;;;2.45;;
42668;SDS011;29384;42.028;21.388;2022-08-19T12:36:00;6.00;;;1.95;;
42668;SDS011;29384;42.028;21.388;2022-08-19T12:38:28;7.22;;;1.88;;
42668;SDS011;29384;42.028;21.388;2022-08-19T12:40:53;7.93;;;2.58;;
42668;SDS011;29384;42.028;21.388;2022-08-19T12:43:19;7.22;;;1.85;;
42668;SDS011;29384;42.028;21.388;2022-08-19T12:45:45;8.65;;;2.17;;
42668;SDS011;29384;42.028;21.388;2022-08-19T12:48:11;3.80;;;2.00;;
42668;SDS011;29384;42.028;21.388;2022-08-19T12:50:40;10.95;;;2.60;;
42668;SDS011;29384;42.028;21.388;2022-08-19T12:53:07;8.75;;;2.53;;
42668;SDS011;29384;42.028;21.388;2022-08-19T12:55:33;16.45;;;3.00;;
42668;SDS011;29384;42.028;21.388;2022-08-19T12:57:59;7.03;;;2.38;;
42668;SDS011;29384;42.028;21.388;2022-08-19T13:00:26;7.75;;;1.50;;
42668;SDS011;29384;42.028;21.388;2022-08-19T13:02:52;4.88;;;2.03;;
42668;SDS011;29384;42.028;21.388;2022-08-19T13:05:20;4.72;;;2.25;;
42668;SDS011;29384;42.028;21.388;2022-08-19T13:07:48;6.45;;;2.33;;
42668;SDS011;29384;42.028;21.388;2022-08-19T13:13:36;7.05;;;2.38;;
42668;SDS011;29384;42.028;21.388;2022-08-19T13:16:02;6.60;;;1.73;;
42668;SDS011;29384;42.028;21.388;2022-08-19T13:18:28;9.70;;;2.42;;
42668;SDS011;29384;42.028;21.388;2022-08-19T13:20:54;9.02;;;2.78;;
42668;SDS011;29384;42.028;21.388;2022-08-19T13:23:19;5.38;;;2.05;;
42668;SDS011;29384;42.028;21.388;2022-08-19T13:25:45;2.28;;;2.00;;
42668;SDS011;29384;42.028;21.388;2022-08-19T13:28:20;4.43;;;3.10;;
42668;SDS011;29384;42.028;21.388;2022-08-19T13:30:46;2.92;;;1.98;;
42668;SDS011;29384;42.028;21.388;2022-08-19T13:33:31;2.42;;;1.67;;
42668;SDS011;29384;42.028;21.388;2022-08-19T13:35:58;3.33;;;2.25;;
42668;SDS011;29384;42.028;21.388;2022-08-19T13:38:26;9.95;;;1.95;;
42668;SDS011;29384;42.028;21.388;2022-08-19T13:45:19;7.40;;;2.78;;
42668;SDS011;29384;42.028;21.388;2022-08-19T13:47:47;2.83;;;1.92;;
42668;SDS011;29384;42.028;21.388;2022-08-19T13:50:23;5.32;;;1.85;;
42668;SDS011;29384;42.028;21.388;2022-08-19T13:52:51;2.28;;;1.45;;
42668;SDS011;29384;42.028;21.388;2022-08-19T13:55:18;1.55;;;1.40;;
42668;SDS011;29384;42.028;21.388;2022-08-19T13:57:45;10.57;;;2.78;;
42668;SDS011;29384;42.028;21.388;2022-08-19T14:00:15;3.22;;;1.70;;
42668;SDS011;29384;42.028;21.388;2022-08-19T14:02:43;5.82;;;2.25;;
42668;SDS011;29384;42.028;21.388;2022-08-19T14:05:11;10.45;;;2.00;;
42668;SDS011;29384;42.028;21.388;2022-08-19T14:07:38;12.48;;;2.22;;
42668;SDS011;29384;42.028;21.388;2022-08-19T14:10:04;5.30;;;2.65;;
42668;SDS011;29384;42.028;21.388;2022-08-19T14:12:32;4.72;;;2.20;;
42668;SDS011;29384;42.028;21.388;2022-08-19T14:14:58;3.20;;;2.10;;
42668;SDS011;29384;42.028;21.388;2022-08-19T14:17:24;2.67;;;2.10;;
42668;SDS011;29384;42.028;21.388;2022-08-19T14:19:50;2.15;;;1.95;;
42668;SDS011;29384;42.028;21.388;2022-08-19T14:22:21;2.92;;;1.90;;
42668;SDS011;29384;42.028;21.388;2022-08-19T14:24:47;3.85;;;2.40;;
42668;SDS011;29384;42.028;21.388;2022-08-19T14:27:13;9.40;;;2.75;;
42668;SDS011;29384;42.028;21.388;2022-08-19T14:29:39;8.43;;;2.03;;
42668;SDS011;29384;42.028;21.388;2022-08-19T14:32:05;26.58;;;4.25;;
42668;SDS011;29384;42.028;21.388;2022-08-19T14:34:30;4.07;;;2.15;;
42668;SDS011;29384;42.028;21.388;2022-08-19T14:36:57;5.80;;;2.80;;
42668;SDS011;29384;42.028;21.388;2022-08-19T14:39:23;5.55;;;1.95;;
42668;SDS011;29384;42.028;21.388;2022-08-19T14:41:48;10.20;;;3.05;;
42668;SDS011;29384;42.028;21.388;2022-08-19T14:44:14;14.57;;;2.90;;
42668;SDS011;29384;42.028;21.388;2022-08-19T14:46:39;9.60;;;3.05;;
42668;SDS011;29384;42.028;21.388;2022-08-19T14:49:05;12.40;;;2.67;;
42668;SDS011;29384;42.028;21.388;2022-08-19T14:51:32;6.40;;;2.83;;
42668;SDS011;29384;42.028;21.388;2022-08-19T14:53:57;10.70;;;3.30;;
42668;SDS011;29384;42.028;21.388;2022-08-19T14:56:26;20.23;;;3.20;;
42668;SDS011;29384;42.028;21.388;2022-08-19T14:58:53;13.98;;;3.17;;
42668;SDS011;29384;42.028;21.388;2022-08-19T15:01:21;17.20;;;2.28;;
42668;SDS011;29384;42.028;21.388;2022-08-19T15:03:48;9.77;;;2.15;;
42668;SDS011;29384;42.028;21.388;2022-08-19T15:06:14;5.68;;;2.40;;
42668;SDS011;29384;42.028;21.388;2022-08-19T15:08:40;9.88;;;3.03;;
42668;SDS011;29384;42.028;21.388;2022-08-19T15:14:29;12.32;;;2.60;;
42668;SDS011;29384;42.028;21.388;2022-08-19T15:17:00;9.73;;;3.78;;
42668;SDS011;29384;42.028;21.388;2022-08-19T15:19:28;5.93;;;2.40;;
42668;SDS011;29384;42.028;21.388;2022-08-19T15:21:54;13.85;;;2.88;;
42668;SDS011;29384;42.028;21.388;2022-08-19T15:24:20;23.38;;;2.58;;
42668;SDS011;29384;42.028;21.388;2022-08-19T15:26:47;21.45;;;2.90;;
42668;SDS011;29384;42.028;21.388;2022-08-19T15:29:12;5.32;;;2.47;;
42668;SDS011;29384;42.028;21.388;2022-08-19T15:31:40;7.03;;;1.60;;
42668;SDS011;29384;42.028;21.388;2022-08-19T15:34:06;11.00;;;2.30;;
42668;SDS011;29384;42.028;21.388;2022-08-19T15:36:32;12.57;;;3.90;;
42668;SDS011;29384;42.028;21.388;2022-08-19T15:38:57;5.07;;;3.03;;
42668;SDS011;29384;42.028;21.388;2022-08-19T15:44:46;6.72;;;2.92;;
42668;SDS011;29384;42.028;21.388;2022-08-19T15:47:13;10.65;;;2.03;;
42668;SDS011;29384;42.028;21.388;2022-08-19T15:49:39;3.38;;;2.35;;
42668;SDS011;29384;42.028;21.388;2022-08-19T15:52:05;6.57;;;2.63;;
42668;SDS011;29384;42.028;21.388;2022-08-19T15:54:31;15.63;;;3.03;;
42668;SDS011;29384;42.028;21.388;2022-08-19T15:56:57;3.90;;;2.22;;
42668;SDS011;29384;42.028;21.388;2022-08-19T15:59:41;8.90;;;2.70;;
42668;SDS011;29384;42.028;21.388;2022-08-19T16:02:26;11.85;;;2.40;;
42668;SDS011;29384;42.028;21.388;2022-08-19T16:05:13;5.80;;;1.60;;
42668;SDS011;29384;42.028;21.388;2022-08-19T16:08:00;8.98;;;2.80;;
42668;SDS011;29384;42.028;21.388;2022-08-19T16:10:26;13.73;;;2.20;;
42668;SDS011;29384;42.028;21.388;2022-08-19T16:12:52;8.93;;;2.95;;
42668;SDS011;29384;42.028;21.388;2022-08-19T16:15:17;9.27;;;2.58;;
42668;SDS011;29384;42.028;21.388;2022-08-19T16:17:45;9.75;;;2.60;;
42668;SDS011;29384;42.028;21.388;2022-08-19T16:20:11;15.65;;;3.65;;
42668;SDS011;29384;42.028;21.388;2022-08-19T16:22:38;13.43;;;3.03;;